createdAt,value
2022-10-17T06:15:23.101Z,100.00
2022-10-17T06:25:22.949Z,100.00
2022-10-17T06:35:22.975Z,100.00
2022-10-17T06:45:22.985Z,100.00
2022-10-17T06:55:23.409Z,100.00
2022-10-17T07:05:23.015Z,100.00
2022-10-17T07:15:22.964Z,100.00
2022-10-17T07:25:23.054Z,100.00
2022-10-17T07:35:23.135Z,100.00
2022-10-17T07:45:22.963Z,100.00
2022-10-17T07:55:23.095Z,100.00
2022-10-17T08:05:23.026Z,100.00
2022-10-17T08:15:24.177Z,100.00
2022-10-17T08:25:23.102Z,100.00
2022-10-17T08:35:23.019Z,100.00
2022-10-17T08:45:23.013Z,100.00
2022-10-17T08:55:23.135Z,100.00
2022-10-17T09:05:26.345Z,100.00
2022-10-17T09:15:23.061Z,100.00
2022-10-17T09:25:23.045Z,100.00
2022-10-17T09:35:23.195Z,100.00
2022-10-17T09:45:23.156Z,100.00
2022-10-17T09:55:23.019Z,100.00
2022-10-17T10:05:23.185Z,100.00
2022-10-17T10:15:23.145Z,100.00
2022-10-17T10:25:23.221Z,99.15
2022-10-17T10:35:23.233Z,94.58
2022-10-17T10:45:46.431Z,93.87
2022-10-17T10:55:23.137Z,89.55
2022-10-17T11:05:23.099Z,88.91
2022-10-17T11:15:23.081Z,85.44
2022-10-17T11:25:23.105Z,83.80
2022-10-17T11:35:23.043Z,80.83
2022-10-17T11:45:23.150Z,80.11
2022-10-17T11:55:23.108Z,78.91
2022-10-17T12:05:23.101Z,77.90
2022-10-17T12:15:23.153Z,78.00
2022-10-17T12:25:23.042Z,78.10
2022-10-17T12:35:23.205Z,78.68
2022-10-17T12:45:22.974Z,78.58
2022-10-17T12:55:23.180Z,75.76
2022-10-17T13:05:23.081Z,75.43
2022-10-17T13:15:23.176Z,75.28
2022-10-17T13:25:23.130Z,75.63
2022-10-17T13:35:31.763Z,77.29
2022-10-17T13:45:23.254Z,78.14
2022-10-17T13:55:23.144Z,78.21
2022-10-17T14:05:23.243Z,79.59
2022-10-17T14:15:23.210Z,81.71
2022-10-17T14:25:23.318Z,83.18
2022-10-17T14:35:41.027Z,84.59
2022-10-17T14:45:23.789Z,85.72
2022-10-17T14:55:23.249Z,87.02
2022-10-17T15:05:23.272Z,88.87
2022-10-17T15:15:23.401Z,89.92
2022-10-17T15:25:23.276Z,91.09
2022-10-17T15:35:23.381Z,93.22
2022-10-17T15:45:23.533Z,95.52
2022-10-17T15:55:23.481Z,97.93
2022-10-17T16:05:23.566Z,100.00
2022-10-17T16:15:23.414Z,100.00
2022-10-17T16:25:23.391Z,100.00
2022-10-17T16:35:23.535Z,100.00
2022-10-17T16:45:23.587Z,100.00
2022-10-17T16:55:23.462Z,100.00
2022-10-17T17:05:23.454Z,100.00
2022-10-17T17:15:23.478Z,100.00
2022-10-17T17:25:23.542Z,100.00
2022-10-17T17:35:23.548Z,100.00
2022-10-17T17:45:23.625Z,100.00
2022-10-17T17:55:23.570Z,100.00
2022-10-17T18:05:23.559Z,100.00
2022-10-17T18:15:23.669Z,100.00
2022-10-17T18:25:23.666Z,100.00
2022-10-17T18:35:23.647Z,100.00
2022-10-17T18:45:23.863Z,100.00
2022-10-17T18:55:23.889Z,100.00
2022-10-17T19:05:24.231Z,100.00
2022-10-17T19:15:25.972Z,100.00
